sensor_id;sensor_type;location;lat;lon;timestamp;P1;P2;P0
14880;PMS7003;7533;51.278;12.588;2024-03-22T00:01:55;7.00;5.75;4.00
14880;PMS7003;7533;51.278;12.588;2024-03-22T00:06:57;6.00;6.00;3.50
14880;PMS7003;7533;51.278;12.588;2024-03-22T00:12:00;6.75;5.50;2.00
14880;PMS7003;7533;51.278;12.588;2024-03-22T00:17:02;6.25;6.25;3.25
14880;PMS7003;7533;51.278;12.588;2024-03-22T00:22:04;5.50;5.50;3.00
14880;PMS7003;7533;51.278;12.588;2024-03-22T00:27:07;7.25;6.25;4.00
14880;PMS7003;7533;51.278;12.588;2024-03-22T00:32:09;6.00;6.00;3.00
14880;PMS7003;7533;51.278;12.588;2024-03-22T00:37:11;4.75;4.75;3.00
14880;PMS7003;7533;51.278;12.588;2024-03-22T00:42:14;5.75;4.25;3.50
14880;PMS7003;7533;51.278;12.588;2024-03-22T00:47:16;4.75;4.75;3.00
14880;PMS7003;7533;51.278;12.588;2024-03-22T00:52:19;6.75;6.75;3.50
14880;PMS7003;7533;51.278;12.588;2024-03-22T00:57:22;6.75;5.50;3.50
14880;PMS7003;7533;51.278;12.588;2024-03-22T01:02:24;5.75;4.00;2.00
14880;PMS7003;7533;51.278;12.588;2024-03-22T01:07:26;6.50;5.50;2.00
14880;PMS7003;7533;51.278;12.588;2024-03-22T01:12:29;7.00;5.50;3.00
14880;PMS7003;7533;51.278;12.588;2024-03-22T01:17:31;4.75;3.50;2.00
14880;PMS7003;7533;51.278;12.588;2024-03-22T01:22:33;5.25;3.00;2.00
14880;PMS7003;7533;51.278;12.588;2024-03-22T01:27:36;7.00;6.00;3.50
14880;PMS7003;7533;51.278;12.588;2024-03-22T01:32:38;4.50;4.00;2.25
14880;PMS7003;7533;51.278;12.588;2024-03-22T01:37:40;5.00;4.25;2.25
14880;PMS7003;7533;51.278;12.588;2024-03-22T01:42:43;5.50;5.50;2.75
14880;PMS7003;7533;51.278;12.588;2024-03-22T01:47:45;5.00;5.00;2.25
14880;PMS7003;7533;51.278;12.588;2024-03-22T01:52:48;6.00;5.00;2.75
14880;PMS7003;7533;51.278;12.588;2024-03-22T01:57:52;3.50;3.50;1.75
14880;PMS7003;7533;51.278;12.588;2024-03-22T02:02:56;4.00;3.25;2.00
14880;PMS7003;7533;51.278;12.588;2024-03-22T02:07:58;3.75;3.75;2.00
14880;PMS7003;7533;51.278;12.588;2024-03-22T02:13:01;5.00;5.00;3.00
14880;PMS7003;7533;51.278;12.588;2024-03-22T02:18:03;5.75;4.75;3.00
14880;PMS7003;7533;51.278;12.588;2024-03-22T02:30:06;3.75;3.75;2.75
14880;PMS7003;7533;51.278;12.588;2024-03-22T02:35:09;6.50;6.00;2.25
14880;PMS7003;7533;51.278;12.588;2024-03-22T02:40:11;4.25;4.25;2.00
14880;PMS7003;7533;51.278;12.588;2024-03-22T02:45:15;6.00;3.00;2.00
14880;PMS7003;7533;51.278;12.588;2024-03-22T02:50:17;4.50;4.50;3.00
14880;PMS7003;7533;51.278;12.588;2024-03-22T02:55:19;5.00;5.00;3.00
14880;PMS7003;7533;51.278;12.588;2024-03-22T03:00:22;4.00;4.00;2.50
14880;PMS7003;7533;51.278;12.588;2024-03-22T03:05:24;3.50;3.00;2.00
14880;PMS7003;7533;51.278;12.588;2024-03-22T03:10:26;5.25;5.00;2.50
14880;PMS7003;7533;51.278;12.588;2024-03-22T03:15:30;5.25;5.00;3.00
14880;PMS7003;7533;51.278;12.588;2024-03-22T03:20:32;4.50;4.25;2.75
14880;PMS7003;7533;51.278;12.588;2024-03-22T03:25:34;3.50;3.50;2.00
14880;PMS7003;7533;51.278;12.588;2024-03-22T03:30:37;3.75;3.75;2.75
14880;PMS7003;7533;51.278;12.588;2024-03-22T03:35:39;6.00;4.25;2.00
14880;PMS7003;7533;51.278;12.588;2024-03-22T03:40:41;4.00;4.00;1.75
14880;PMS7003;7533;51.278;12.588;2024-03-22T03:45:44;3.00;3.00;1.75
14880;PMS7003;7533;51.278;12.588;2024-03-22T03:50:50;4.00;3.00;2.00
14880;PMS7003;7533;51.278;12.588;2024-03-22T03:55:54;2.50;2.50;2.00
14880;PMS7003;7533;51.278;12.588;2024-03-22T04:00:57;3.75;3.75;1.75
14880;PMS7003;7533;51.278;12.588;2024-03-22T04:05:59;3.50;2.75;2.00
14880;PMS7003;7533;51.278;12.588;2024-03-22T04:11:01;2.25;2.25;1.00
14880;PMS7003;7533;51.278;12.588;2024-03-22T04:16:05;4.25;3.75;1.50
14880;PMS7003;7533;51.278;12.588;2024-03-22T04:21:07;3.25;3.00;2.50
14880;PMS7003;7533;51.278;12.588;2024-03-22T04:26:09;4.50;3.00;2.00
14880;PMS7003;7533;51.278;12.588;2024-03-22T04:31:14;3.75;3.75;2.00
14880;PMS7003;7533;51.278;12.588;2024-03-22T04:36:16;4.00;4.00;2.00
14880;PMS7003;7533;51.278;12.588;2024-03-22T04:41:18;5.00;4.50;2.00
14880;PMS7003;7533;51.278;12.588;2024-03-22T04:46:21;4.75;3.50;1.75
14880;PMS7003;7533;51.278;12.588;2024-03-22T04:51:23;3.75;3.75;1.75
14880;PMS7003;7533;51.278;12.588;2024-03-22T04:56:25;4.50;4.50;2.00
14880;PMS7003;7533;51.278;12.588;2024-03-22T05:01:28;5.00;3.25;2.25
14880;PMS7003;7533;51.278;12.588;2024-03-22T05:06:30;4.25;4.25;1.50
14880;PMS7003;7533;51.278;12.588;2024-03-22T05:11:31;5.25;5.25;2.00
14880;PMS7003;7533;51.278;12.588;2024-03-22T05:16:35;3.75;3.75;1.25
14880;PMS7003;7533;51.278;12.588;2024-03-22T05:21:37;3.50;3.50;1.25
14880;PMS7003;7533;51.278;12.588;2024-03-22T05:26:38;3.25;3.00;1.75
14880;PMS7003;7533;51.278;12.588;2024-03-22T05:31:47;4.00;4.00;2.00
14880;PMS7003;7533;51.278;12.588;2024-03-22T05:36:51;4.00;2.50;1.00
14880;PMS7003;7533;51.278;12.588;2024-03-22T05:41:53;3.25;3.00;1.50
14880;PMS7003;7533;51.278;12.588;2024-03-22T05:46:56;3.75;3.75;1.00
14880;PMS7003;7533;51.278;12.588;2024-03-22T05:51:58;4.00;3.00;2.00
14880;PMS7003;7533;51.278;12.588;2024-03-22T05:57:00;4.00;3.50;1.75
14880;PMS7003;7533;51.278;12.588;2024-03-22T06:02:04;3.00;3.00;1.50
14880;PMS7003;7533;51.278;12.588;2024-03-22T06:07:06;3.00;3.00;1.00
14880;PMS7003;7533;51.278;12.588;2024-03-22T06:12:08;4.00;4.00;1.00
14880;PMS7003;7533;51.278;12.588;2024-03-22T06:17:11;2.25;2.25;1.00
14880;PMS7003;7533;51.278;12.588;2024-03-22T06:22:13;4.50;3.00;2.00
14880;PMS7003;7533;51.278;12.588;2024-03-22T06:27:15;2.00;2.00;1.00
14880;PMS7003;7533;51.278;12.588;2024-03-22T06:32:19;2.50;2.50;1.00
14880;PMS7003;7533;51.278;12.588;2024-03-22T06:37:21;3.75;2.50;1.50
14880;PMS7003;7533;51.278;12.588;2024-03-22T06:42:23;3.00;2.00;1.00
14880;PMS7003;7533;51.278;12.588;2024-03-22T06:47:28;2.00;2.00;1.00
14880;PMS7003;7533;51.278;12.588;2024-03-22T06:52:30;4.00;3.50;1.00
14880;PMS7003;7533;51.278;12.588;2024-03-22T06:57:32;2.50;2.50;1.00
14880;PMS7003;7533;51.278;12.588;2024-03-22T07:02:35;2.00;1.50;1.00
14880;PMS7003;7533;51.278;12.588;2024-03-22T07:07:37;2.75;2.25;1.50
14880;PMS7003;7533;51.278;12.588;2024-03-22T07:12:39;1.75;1.75;1.00
14880;PMS7003;7533;51.278;12.588;2024-03-22T07:17:42;3.25;3.25;1.00
14880;PMS7003;7533;51.278;12.588;2024-03-22T07:22:45;3.25;2.75;1.00
14880;PMS7003;7533;51.278;12.588;2024-03-22T07:27:47;4.00;2.50;1.75
14880;PMS7003;7533;51.278;12.588;2024-03-22T07:32:51;3.50;3.25;0.75
14880;PMS7003;7533;51.278;12.588;2024-03-22T07:37:53;1.00;1.00;1.00
14880;PMS7003;7533;51.278;12.588;2024-03-22T07:42:55;3.00;3.00;1.75
14880;PMS7003;7533;51.278;12.588;2024-03-22T07:47:58;3.75;3.75;2.00
14880;PMS7003;7533;51.278;12.588;2024-03-22T07:53:00;2.00;2.00;1.00
14880;PMS7003;7533;51.278;12.588;2024-03-22T07:58:02;1.50;1.50;1.00
14880;PMS7003;7533;51.278;12.588;2024-03-22T08:03:06;13.75;12.50;7.75
14880;PMS7003;7533;51.278;12.588;2024-03-22T08:08:09;16.00;13.75;8.00
14880;PMS7003;7533;51.278;12.588;2024-03-22T08:13:11;17.25;16.75;9.00
14880;PMS7003;7533;51.278;12.588;2024-03-22T08:18:14;19.25;17.50;9.25
14880;PMS7003;7533;51.278;12.588;2024-03-22T08:23:16;16.25;15.25;8.75
14880;PMS7003;7533;51.278;12.588;2024-03-22T08:28:20;15.75;15.00;8.25
14880;PMS7003;7533;51.278;12.588;2024-03-22T08:33:24;12.75;12.00;7.00
14880;PMS7003;7533;51.278;12.588;2024-03-22T08:38:26;12.50;11.25;6.00
14880;PMS7003;7533;51.278;12.588;2024-03-22T08:43:28;9.00;8.75;6.00
14880;PMS7003;7533;51.278;12.588;2024-03-22T08:48:31;9.25;9.00;4.25
14880;PMS7003;7533;51.278;12.588;2024-03-22T08:53:34;10.50;9.50;5.00
14880;PMS7003;7533;51.278;12.588;2024-03-22T08:58:36;7.00;6.50;4.00
14880;PMS7003;7533;51.278;12.588;2024-03-22T09:03:39;10.00;8.50;4.75
14880;PMS7003;7533;51.278;12.588;2024-03-22T09:08:41;6.25;5.00;4.00
14880;PMS7003;7533;51.278;12.588;2024-03-22T09:13:43;8.50;8.00;4.00
14880;PMS7003;7533;51.278;12.588;2024-03-22T09:18:51;9.00;7.00;4.00
14880;PMS7003;7533;51.278;12.588;2024-03-22T09:23:53;7.00;5.50;3.00
14880;PMS7003;7533;51.278;12.588;2024-03-22T09:28:55;5.50;5.50;3.00
14880;PMS7003;7533;51.278;12.588;2024-03-22T09:33:58;5.75;5.75;3.75
14880;PMS7003;7533;51.278;12.588;2024-03-22T09:39:00;6.50;4.75;3.00
14880;PMS7003;7533;51.278;12.588;2024-03-22T09:44:02;6.00;5.00;3.00
14880;PMS7003;7533;51.278;12.588;2024-03-22T09:49:08;7.50;5.00;3.00
14880;PMS7003;7533;51.278;12.588;2024-03-22T09:54:11;5.00;5.00;3.00
14880;PMS7003;7533;51.278;12.588;2024-03-22T09:59:13;6.75;5.00;2.25
14880;PMS7003;7533;51.278;12.588;2024-03-22T10:04:16;5.25;5.00;3.25
14880;PMS7003;7533;51.278;12.588;2024-03-22T10:09:19;4.00;4.00;2.75
14880;PMS7003;7533;51.278;12.588;2024-03-22T10:14:30;6.00;5.00;3.00
14880;PMS7003;7533;51.278;12.588;2024-03-22T10:19:35;4.25;4.00;3.00
14880;PMS7003;7533;51.278;12.588;2024-03-22T10:24:37;4.75;4.75;2.00
14880;PMS7003;7533;51.278;12.588;2024-03-22T10:29:40;6.50;5.50;3.00
14880;PMS7003;7533;51.278;12.588;2024-03-22T10:34:43;5.50;4.25;2.00
14880;PMS7003;7533;51.278;12.588;2024-03-22T10:39:47;4.25;4.25;2.25
14880;PMS7003;7533;51.278;12.588;2024-03-22T10:44:53;6.00;4.75;3.00
14880;PMS7003;7533;51.278;12.588;2024-03-22T10:49:58;5.50;5.00;3.75
14880;PMS7003;7533;51.278;12.588;2024-03-22T10:55:07;6.25;6.00;3.25
14880;PMS7003;7533;51.278;12.588;2024-03-22T11:00:14;6.00;6.00;4.00
14880;PMS7003;7533;51.278;12.588;2024-03-22T11:05:17;5.75;5.25;3.00
14880;PMS7003;7533;51.278;12.588;2024-03-22T11:10:19;5.00;4.75;2.25
14880;PMS7003;7533;51.278;12.588;2024-03-22T11:15:21;7.00;7.00;3.00
14880;PMS7003;7533;51.278;12.588;2024-03-22T11:20:25;5.25;5.25;2.25
14880;PMS7003;7533;51.278;12.588;2024-03-22T11:25:28;5.25;5.00;2.75
14880;PMS7003;7533;51.278;12.588;2024-03-22T11:30:30;6.00;5.50;2.00
14880;PMS7003;7533;51.278;12.588;2024-03-22T11:35:36;6.00;5.50;3.75
14880;PMS7003;7533;51.278;12.588;2024-03-22T11:40:39;5.00;5.00;2.50
14880;PMS7003;7533;51.278;12.588;2024-03-22T11:45:51;5.50;5.50;3.25
14880;PMS7003;7533;51.278;12.588;2024-03-22T11:50:53;6.00;4.00;2.00
14880;PMS7003;7533;51.278;12.588;2024-03-22T11:55:57;3.50;3.50;2.00
14880;PMS7003;7533;51.278;12.588;2024-03-22T12:01:00;5.00;5.00;3.00
14880;PMS7003;7533;51.278;12.588;2024-03-22T12:06:04;6.00;5.25;2.25
14880;PMS7003;7533;51.278;12.588;2024-03-22T12:11:06;5.50;4.50;3.25
14880;PMS7003;7533;51.278;12.588;2024-03-22T12:16:11;5.00;5.00;3.00
14880;PMS7003;7533;51.278;12.588;2024-03-22T12:21:13;6.75;6.75;4.00
14880;PMS7003;7533;51.278;12.588;2024-03-22T12:26:15;5.50;5.25;3.00
14880;PMS7003;7533;51.278;12.588;2024-03-22T12:31:19;5.75;5.00;3.00
14880;PMS7003;7533;51.278;12.588;2024-03-22T12:36:21;6.25;6.00;3.00
14880;PMS7003;7533;51.278;12.588;2024-03-22T12:41:23;6.75;6.25;3.75
14880;PMS7003;7533;51.278;12.588;2024-03-22T12:46:26;5.00;4.75;2.50
14880;PMS7003;7533;51.278;12.588;2024-03-22T12:51:28;7.00;5.50;3.50
14880;PMS7003;7533;51.278;12.588;2024-03-22T12:56:30;4.25;4.25;2.50
14880;PMS7003;7533;51.278;12.588;2024-03-22T13:01:34;5.00;4.00;2.00
14880;PMS7003;7533;51.278;12.588;2024-03-22T13:06:37;7.75;4.75;2.00
14880;PMS7003;7533;51.278;12.588;2024-03-22T13:11:39;5.75;4.25;2.00
14880;PMS7003;7533;51.278;12.588;2024-03-22T13:16:42;7.00;4.50;3.00
14880;PMS7003;7533;51.278;12.588;2024-03-22T13:21:44;7.00;4.00;2.00
14880;PMS7003;7533;51.278;12.588;2024-03-22T13:26:48;6.25;4.50;3.00
14880;PMS7003;7533;51.278;12.588;2024-03-22T13:31:52;6.25;5.50;2.50
14880;PMS7003;7533;51.278;12.588;2024-03-22T13:36:54;5.25;5.25;3.25
14880;PMS7003;7533;51.278;12.588;2024-03-22T13:41:56;5.00;5.00;3.00
14880;PMS7003;7533;51.278;12.588;2024-03-22T13:47:00;4.50;4.50;2.75
14880;PMS7003;7533;51.278;12.588;2024-03-22T13:52:02;5.75;5.75;3.00
14880;PMS7003;7533;51.278;12.588;2024-03-22T13:57:05;5.75;5.00;3.00
14880;PMS7003;7533;51.278;12.588;2024-03-22T14:02:08;4.00;4.00;2.00
14880;PMS7003;7533;51.278;12.588;2024-03-22T14:07:10;4.75;4.50;3.25
14880;PMS7003;7533;51.278;12.588;2024-03-22T14:12:12;3.75;3.25;2.00
14880;PMS7003;7533;51.278;12.588;2024-03-22T14:17:15;4.00;4.00;2.50
14880;PMS7003;7533;51.278;12.588;2024-03-22T14:22:18;4.00;4.00;2.75
14880;PMS7003;7533;51.278;12.588;2024-03-22T14:27:20;6.75;4.75;2.75
14880;PMS7003;7533;51.278;12.588;2024-03-22T14:32:23;6.50;5.50;3.00
14880;PMS7003;7533;51.278;12.588;2024-03-22T14:37:26;3.25;3.25;1.50
14880;PMS7003;7533;51.278;12.588;2024-03-22T14:42:29;3.00;3.00;1.75
14880;PMS7003;7533;51.278;12.588;2024-03-22T14:47:32;6.50;4.00;2.00
14880;PMS7003;7533;51.278;12.588;2024-03-22T14:52:34;5.50;5.50;3.25
14880;PMS7003;7533;51.278;12.588;2024-03-22T14:57:36;4.25;4.25;2.00
14880;PMS7003;7533;51.278;12.588;2024-03-22T15:02:40;4.75;4.50;2.00
14880;PMS7003;7533;51.278;12.588;2024-03-22T15:07:41;3.50;3.50;2.00
14880;PMS7003;7533;51.278;12.588;2024-03-22T15:12:43;4.25;2.50;2.00
14880;PMS7003;7533;51.278;12.588;2024-03-22T15:17:47;4.00;3.50;1.50
14880;PMS7003;7533;51.278;12.588;2024-03-22T15:22:48;3.75;3.00;2.50
14880;PMS7003;7533;51.278;12.588;2024-03-22T15:27:50;4.00;4.00;3.00
14880;PMS7003;7533;51.278;12.588;2024-03-22T15:32:54;2.75;2.75;1.25
14880;PMS7003;7533;51.278;12.588;2024-03-22T15:37:56;3.00;3.00;2.00
14880;PMS7003;7533;51.278;12.588;2024-03-22T15:42:59;4.75;3.75;2.50
14880;PMS7003;7533;51.278;12.588;2024-03-22T15:48:02;3.00;3.00;1.00
14880;PMS7003;7533;51.278;12.588;2024-03-22T15:53:06;4.50;4.00;1.00
14880;PMS7003;7533;51.278;12.588;2024-03-22T15:58:09;4.50;4.00;2.00
14880;PMS7003;7533;51.278;12.588;2024-03-22T16:03:12;3.00;3.00;1.50
14880;PMS7003;7533;51.278;12.588;2024-03-22T16:08:14;4.75;4.25;2.00
14880;PMS7003;7533;51.278;12.588;2024-03-22T16:13:16;4.50;4.50;3.00
14880;PMS7003;7533;51.278;12.588;2024-03-22T16:18:19;4.75;4.50;2.00
14880;PMS7003;7533;51.278;12.588;2024-03-22T16:23:21;5.75;4.75;2.00
14880;PMS7003;7533;51.278;12.588;2024-03-22T16:28:23;4.00;3.00;2.00
14880;PMS7003;7533;51.278;12.588;2024-03-22T16:33:28;3.50;3.50;2.00
14880;PMS7003;7533;51.278;12.588;2024-03-22T16:38:30;4.00;3.50;1.75
14880;PMS7003;7533;51.278;12.588;2024-03-22T16:43:33;2.75;2.75;1.50
14880;PMS7003;7533;51.278;12.588;2024-03-22T16:48:36;5.50;3.50;2.00
14880;PMS7003;7533;51.278;12.588;2024-03-22T16:53:38;5.00;4.00;2.75
14880;PMS7003;7533;51.278;12.588;2024-03-22T16:58:40;4.00;3.25;2.25
14880;PMS7003;7533;51.278;12.588;2024-03-22T17:03:44;4.00;4.00;2.00
14880;PMS7003;7533;51.278;12.588;2024-03-22T17:08:46;5.00;4.50;2.50
14880;PMS7003;7533;51.278;12.588;2024-03-22T17:13:48;5.00;4.00;2.00
14880;PMS7003;7533;51.278;12.588;2024-03-22T17:18:51;6.00;5.50;3.00
14880;PMS7003;7533;51.278;12.588;2024-03-22T17:23:54;4.00;4.00;3.00
14880;PMS7003;7533;51.278;12.588;2024-03-22T17:28:56;8.50;5.75;2.75
14880;PMS7003;7533;51.278;12.588;2024-03-22T17:33:59;5.50;4.25;2.00
14880;PMS7003;7533;51.278;12.588;2024-03-22T17:39:02;6.25;4.50;2.00
14880;PMS7003;7533;51.278;12.588;2024-03-22T17:44:04;5.00;4.50;2.50
14880;PMS7003;7533;51.278;12.588;2024-03-22T17:49:08;4.50;3.50;2.00
14880;PMS7003;7533;51.278;12.588;2024-03-22T17:54:09;4.75;3.00;2.00
14880;PMS7003;7533;51.278;12.588;2024-03-22T17:59:11;5.25;4.75;3.00
14880;PMS7003;7533;51.278;12.588;2024-03-22T18:04:15;4.00;4.00;2.50
14880;PMS7003;7533;51.278;12.588;2024-03-22T18:09:17;3.50;3.50;2.00
14880;PMS7003;7533;51.278;12.588;2024-03-22T18:14:18;5.50;4.00;2.75
14880;PMS7003;7533;51.278;12.588;2024-03-22T18:19:24;5.50;4.50;2.50
14880;PMS7003;7533;51.278;12.588;2024-03-22T18:24:26;4.50;4.50;2.50
14880;PMS7003;7533;51.278;12.588;2024-03-22T18:29:28;4.50;3.50;1.50
14880;PMS7003;7533;51.278;12.588;2024-03-22T18:34:31;6.75;4.75;3.00
14880;PMS7003;7533;51.278;12.588;2024-03-22T18:39:33;4.75;4.00;2.50
14880;PMS7003;7533;51.278;12.588;2024-03-22T18:44:35;6.00;4.00;2.25
14880;PMS7003;7533;51.278;12.588;2024-03-22T18:49:41;4.00;3.00;2.00
14880;PMS7003;7533;51.278;12.588;2024-03-22T18:54:44;3.75;3.75;2.00
14880;PMS7003;7533;51.278;12.588;2024-03-22T18:59:56;6.00;4.00;2.00
14880;PMS7003;7533;51.278;12.588;2024-03-22T19:05:00;3.25;3.00;2.00
14880;PMS7003;7533;51.278;12.588;2024-03-22T19:10:02;4.25;4.25;2.50
14880;PMS7003;7533;51.278;12.588;2024-03-22T19:15:04;4.00;4.00;2.25
14880;PMS7003;7533;51.278;12.588;2024-03-22T19:20:10;4.25;3.75;2.00
14880;PMS7003;7533;51.278;12.588;2024-03-22T19:25:13;4.75;4.75;3.00
14880;PMS7003;7533;51.278;12.588;2024-03-22T19:30:16;2.50;2.25;1.25
14880;PMS7003;7533;51.278;12.588;2024-03-22T19:35:25;3.25;3.25;2.00
14880;PMS7003;7533;51.278;12.588;2024-03-22T19:40:26;6.00;4.25;2.25
14880;PMS7003;7533;51.278;12.588;2024-03-22T19:45:29;3.50;3.50;2.50
14880;PMS7003;7533;51.278;12.588;2024-03-22T19:50:32;4.00;4.00;2.75
14880;PMS7003;7533;51.278;12.588;2024-03-22T19:55:34;4.00;4.00;2.25
14880;PMS7003;7533;51.278;12.588;2024-03-22T20:00:36;5.00;5.00;3.00
14880;PMS7003;7533;51.278;12.588;2024-03-22T20:05:39;4.00;4.00;2.00
14880;PMS7003;7533;51.278;12.588;2024-03-22T20:10:41;3.75;3.75;2.00
14880;PMS7003;7533;51.278;12.588;2024-03-22T20:15:43;4.75;3.00;2.00
14880;PMS7003;7533;51.278;12.588;2024-03-22T20:20:46;4.75;4.75;3.00
14880;PMS7003;7533;51.278;12.588;2024-03-22T20:25:48;4.50;4.50;2.00
14880;PMS7003;7533;51.278;12.588;2024-03-22T20:30:50;5.00;5.00;3.00
14880;PMS7003;7533;51.278;12.588;2024-03-22T20:35:53;4.00;2.75;1.50
